createdAt,value
2023-10-29T00:03:21.474Z,11.60
2023-10-29T00:13:26.512Z,11.64
2023-10-29T00:23:29.420Z,11.69
2023-10-29T00:33:33.718Z,11.64
2023-10-29T00:43:40.972Z,11.65
2023-10-29T00:53:46.231Z,12.13
2023-10-29T01:03:49.486Z,12.95
2023-10-29T01:13:53.770Z,13.21
2023-10-29T01:23:56.670Z,13.44
2023-10-29T01:34:00.894Z,13.51
2023-10-29T01:44:03.717Z,13.61
2023-10-29T01:54:08.130Z,13.39
2023-10-29T02:04:11.132Z,13.63
2023-10-29T02:14:15.382Z,13.62
2023-10-29T02:24:19.634Z,13.94
2023-10-29T02:34:22.461Z,14.20
2023-10-29T02:44:26.621Z,14.36
2023-10-29T02:54:29.760Z,14.31
2023-10-29T03:04:35.200Z,13.98
2023-10-29T03:14:38.035Z,13.85
2023-10-29T03:24:42.368Z,13.89
2023-10-29T03:34:45.254Z,13.73
2023-10-29T03:44:49.632Z,13.54
2023-10-29T03:54:52.687Z,13.35
2023-10-29T04:05:06.158Z,13.22
2023-10-29T04:15:13.016Z,13.10
2023-10-29T04:25:17.611Z,13.16
2023-10-29T04:35:20.618Z,13.16
2023-10-29T04:45:24.812Z,13.04
2023-10-29T04:55:29.668Z,12.85
2023-10-29T05:05:33.897Z,12.70
2023-10-29T05:15:36.733Z,12.62
2023-10-29T05:25:42.029Z,12.46
2023-10-29T05:35:44.961Z,12.36
2023-10-29T05:45:49.223Z,12.47
2023-10-29T05:55:52.081Z,12.48
2023-10-29T06:05:56.978Z,12.42
2023-10-29T06:15:59.907Z,12.49
2023-10-29T06:26:08.810Z,12.39
2023-10-29T06:36:11.852Z,12.32
2023-10-29T06:46:16.503Z,12.20
2023-10-29T06:56:19.326Z,12.16
2023-10-29T07:06:24.215Z,12.31
2023-10-29T07:16:27.082Z,12.39
2023-10-29T07:26:31.337Z,12.49
2023-10-29T07:36:34.186Z,12.59
2023-10-29T07:46:38.707Z,12.88
2023-10-29T07:56:42.319Z,13.15
2023-10-29T08:06:47.039Z,13.27
2023-10-29T08:16:49.872Z,13.26
2023-10-29T08:26:54.064Z,13.52
2023-10-29T08:36:56.976Z,13.72
2023-10-29T08:47:01.200Z,13.90
2023-10-29T08:57:04.083Z,13.95
2023-10-29T09:07:08.515Z,13.97
2023-10-29T09:17:11.874Z,14.28
2023-10-29T09:27:16.042Z,14.07
2023-10-29T09:37:19.297Z,14.14
2023-10-29T09:47:24.521Z,14.15
2023-10-29T09:57:27.789Z,13.88
2023-10-29T10:07:32.038Z,13.76
2023-10-29T10:17:34.865Z,13.66
2023-10-29T10:27:50.849Z,13.59
2023-10-29T10:37:55.018Z,13.50
2023-10-29T10:48:00.078Z,13.52
2023-10-29T10:58:04.436Z,13.44
2023-10-29T11:08:08.591Z,13.34
2023-10-29T11:18:13.703Z,13.24
2023-10-29T11:28:46.167Z,13.17
2023-10-29T11:38:49.005Z,13.03
2023-10-29T11:49:06.592Z,13.06
2023-10-29T11:59:09.423Z,12.95
2023-10-29T12:09:21.018Z,12.86
2023-10-29T12:19:36.304Z,12.74
2023-10-29T12:29:40.518Z,12.88
2023-10-29T12:39:46.224Z,12.76
2023-10-29T12:50:01.631Z,12.90
2023-10-29T13:00:06.814Z,12.53
2023-10-29T13:10:13.933Z,12.50
2023-10-29T13:20:16.767Z,12.57
2023-10-29T13:30:21.025Z,12.47
2023-10-29T13:40:23.811Z,12.75
2023-10-29T13:50:28.553Z,12.93
2023-10-29T14:00:32.267Z,12.83
2023-10-29T14:10:36.450Z,12.87
2023-10-29T14:20:39.435Z,12.43
2023-10-29T14:30:43.761Z,12.60
2023-10-29T14:40:46.604Z,12.58
2023-10-29T14:50:53.057Z,12.72
2023-10-29T15:00:55.950Z,12.79
2023-10-29T15:11:00.447Z,12.69
2023-10-29T15:21:10.264Z,12.68
2023-10-29T15:31:14.847Z,12.61
2023-10-29T15:41:19.364Z,12.65
2023-10-29T15:51:26.887Z,12.47
2023-10-29T16:01:34.021Z,12.44
2023-10-29T16:11:39.270Z,12.36
2023-10-29T16:21:43.888Z,12.46
2023-10-29T16:31:48.093Z,12.38
2023-10-29T16:41:50.891Z,12.32
2023-10-29T16:51:55.939Z,12.29
2023-10-29T17:01:58.752Z,12.28
2023-10-29T17:12:03.470Z,12.24
2023-10-29T17:22:06.414Z,12.28
2023-10-29T17:32:11.308Z,12.22
2023-10-29T17:42:14.131Z,12.32
2023-10-29T17:52:25.184Z,12.22
2023-10-29T18:02:28.230Z,12.24
2023-10-29T18:12:32.579Z,12.38
2023-10-29T18:22:35.402Z,12.31
2023-10-29T18:32:39.723Z,12.26
2023-10-29T18:42:42.548Z,12.30
2023-10-29T18:52:46.695Z,12.22
2023-10-29T19:02:49.532Z,12.16
2023-10-29T19:12:53.729Z,12.00
2023-10-29T19:22:56.525Z,12.00
2023-10-29T19:33:00.821Z,11.94
2023-10-29T19:43:03.709Z,11.80
2023-10-29T19:53:07.946Z,11.64
2023-10-29T20:03:13.608Z,11.65
2023-10-29T20:13:18.146Z,11.61
2023-10-29T20:23:21.261Z,11.49
2023-10-29T20:33:25.519Z,11.58
2023-10-29T20:43:28.400Z,11.56
2023-10-29T20:53:33.116Z,11.58
2023-10-29T21:03:36.246Z,11.63
2023-10-29T21:13:43.230Z,11.67
2023-10-29T21:23:47.197Z,11.79
2023-10-29T21:33:51.705Z,11.82
2023-10-29T21:43:54.621Z,11.80
2023-10-29T21:53:58.865Z,11.80
2023-10-29T22:04:01.818Z,11.82
2023-10-29T22:14:06.188Z,11.78
2023-10-29T22:24:09.754Z,11.82
2023-10-29T22:34:14.021Z,11.77
2023-10-29T22:44:16.794Z,11.81
2023-10-29T22:54:21.026Z,11.73
2023-10-29T23:04:23.935Z,11.62
2023-10-29T23:14:30.186Z,11.66
2023-10-29T23:24:33.050Z,11.72
2023-10-29T23:34:37.949Z,11.82
2023-10-29T23:44:40.724Z,11.86
2023-10-29T23:54:46.042Z,11.96
